createdAt,value
2017-05-17T00:00:29.182Z,0
2017-05-17T00:01:09.779Z,0
2017-05-17T00:01:50.348Z,0
2017-05-17T00:02:30.945Z,0
2017-05-17T00:03:11.532Z,0
2017-05-17T00:03:52.121Z,0
2017-05-17T00:04:32.693Z,0
2017-05-17T00:05:13.345Z,0
2017-05-17T00:05:53.941Z,0
2017-05-17T00:06:34.536Z,0
2017-05-17T00:07:15.134Z,0
2017-05-17T00:07:55.731Z,0
2017-05-17T00:08:36.323Z,0
2017-05-17T00:09:16.893Z,0
2017-05-17T00:09:57.493Z,0
2017-05-17T00:10:38.097Z,0
2017-05-17T00:11:18.695Z,0
2017-05-17T00:11:59.291Z,0
2017-05-17T00:12:39.895Z,0
2017-05-17T00:13:20.508Z,0
2017-05-17T00:14:01.096Z,0
2017-05-17T00:14:41.710Z,0
2017-05-17T00:15:22.276Z,0
2017-05-17T00:16:02.847Z,0
2017-05-17T00:16:43.429Z,0
2017-05-17T00:17:24.080Z,0
2017-05-17T00:18:04.665Z,0
2017-05-17T00:18:45.257Z,0
2017-05-17T00:19:25.873Z,0
2017-05-17T00:20:06.460Z,0
2017-05-17T00:20:47.068Z,0
2017-05-17T00:21:27.645Z,0
2017-05-17T00:22:08.233Z,0
2017-05-17T00:22:48.815Z,0
2017-05-17T00:23:29.428Z,0
2017-05-17T00:24:10.016Z,0
2017-05-17T00:24:50.606Z,0
2017-05-17T00:25:31.225Z,0
2017-05-17T00:26:11.825Z,0
2017-05-17T00:26:52.435Z,0
2017-05-17T00:27:33.026Z,0
2017-05-17T00:28:13.615Z,0
2017-05-17T00:28:54.210Z,0
2017-05-17T00:29:34.788Z,0
2017-05-17T00:30:15.388Z,0
2017-05-17T00:30:55.985Z,0
2017-05-17T00:31:36.578Z,0
2017-05-17T00:32:17.145Z,0
2017-05-17T00:32:57.741Z,0
2017-05-17T00:33:38.306Z,0
2017-05-17T00:34:18.902Z,0
2017-05-17T00:34:59.492Z,0
2017-05-17T00:35:40.073Z,0
2017-05-17T00:36:20.658Z,0
2017-05-17T00:37:01.260Z,0
2017-05-17T00:37:41.832Z,0
2017-05-17T00:38:22.414Z,0
2017-05-17T00:39:03.005Z,0
2017-05-17T00:39:43.593Z,0
2017-05-17T00:40:24.200Z,0
2017-05-17T00:41:04.768Z,0
2017-05-17T00:41:45.373Z,0
2017-05-17T00:42:25.969Z,0
2017-05-17T00:43:06.569Z,0
2017-05-17T00:43:47.233Z,0
2017-05-17T00:44:27.819Z,0
2017-05-17T00:45:08.378Z,0
2017-05-17T00:45:48.971Z,0
2017-05-17T00:46:29.562Z,0
2017-05-17T00:47:10.135Z,0
2017-05-17T00:47:50.720Z,0
2017-05-17T00:48:31.301Z,0
2017-05-17T00:49:11.874Z,0
2017-05-17T00:49:52.470Z,0
2017-05-17T00:50:33.030Z,0
2017-05-17T00:51:13.606Z,0
2017-05-17T00:51:54.227Z,0
2017-05-17T00:52:34.879Z,0
2017-05-17T00:53:15.452Z,0
2017-05-17T00:53:56.053Z,0
2017-05-17T00:54:36.622Z,0
2017-05-17T00:55:17.240Z,0
2017-05-17T00:55:57.840Z,0
2017-05-17T00:56:38.431Z,0
2017-05-17T00:57:19.005Z,0
2017-05-17T00:57:59.601Z,0
2017-05-17T00:58:40.182Z,0
2017-05-17T00:59:20.804Z,0
2017-05-17T01:00:01.410Z,0
2017-05-17T01:00:42.023Z,0
2017-05-17T01:01:22.646Z,0
2017-05-17T01:02:03.207Z,0
2017-05-17T01:02:43.802Z,0
2017-05-17T01:03:24.386Z,0
2017-05-17T01:04:04.960Z,0
2017-05-17T01:04:45.545Z,0
2017-05-17T01:05:26.122Z,0
2017-05-17T01:06:06.704Z,0
2017-05-17T01:06:47.325Z,0
2017-05-17T01:07:27.904Z,0
2017-05-17T01:08:08.501Z,0
2017-05-17T01:08:49.085Z,0
2017-05-17T01:09:29.656Z,0
2017-05-17T01:10:10.233Z,0
2017-05-17T01:10:50.817Z,0
2017-05-17T01:11:31.386Z,0
2017-05-17T01:12:11.978Z,0
2017-05-17T01:12:52.552Z,0
2017-05-17T01:13:33.150Z,0
2017-05-17T01:14:13.731Z,0
2017-05-17T01:14:54.315Z,0
2017-05-17T01:15:34.933Z,0
2017-05-17T01:16:15.512Z,0
2017-05-17T01:16:56.093Z,0
2017-05-17T01:17:36.669Z,0
2017-05-17T01:18:17.242Z,0
2017-05-17T01:18:57.900Z,0
2017-05-17T01:19:38.465Z,0
2017-05-17T01:20:19.053Z,0
2017-05-17T01:20:59.647Z,0
2017-05-17T01:21:40.244Z,0
2017-05-17T01:22:20.848Z,0
2017-05-17T01:23:01.439Z,0
2017-05-17T01:23:42.031Z,0
2017-05-17T01:24:22.637Z,0
2017-05-17T01:25:03.239Z,0
2017-05-17T01:25:43.815Z,0
2017-05-17T01:26:24.398Z,0
2017-05-17T01:27:05.006Z,0
2017-05-17T01:27:45.588Z,0
2017-05-17T01:28:26.155Z,0
2017-05-17T01:29:06.747Z,0
2017-05-17T01:29:47.337Z,0
2017-05-17T01:30:27.912Z,0
2017-05-17T01:31:08.509Z,0
2017-05-17T01:31:49.094Z,0
2017-05-17T01:32:29.717Z,0
2017-05-17T01:33:10.285Z,0
2017-05-17T01:33:50.862Z,0
2017-05-17T01:34:31.441Z,0
2017-05-17T01:35:12.069Z,0
2017-05-17T01:35:52.617Z,0
2017-05-17T01:36:33.198Z,0
2017-05-17T01:37:13.787Z,0
2017-05-17T01:37:54.369Z,0
2017-05-17T01:38:34.951Z,0
2017-05-17T01:39:15.558Z,0
2017-05-17T01:39:56.131Z,0
2017-05-17T01:40:36.737Z,0
2017-05-17T01:41:17.321Z,0
2017-05-17T01:41:57.929Z,0
2017-05-17T01:42:38.506Z,0
2017-05-17T01:43:19.096Z,0
2017-05-17T01:43:59.685Z,0
2017-05-17T01:44:40.276Z,0
2017-05-17T01:45:20.892Z,0
2017-05-17T01:46:01.470Z,0
2017-05-17T01:46:42.056Z,0
2017-05-17T01:47:22.645Z,0
2017-05-17T01:48:03.261Z,0
2017-05-17T01:48:43.928Z,0
2017-05-17T01:49:24.513Z,0
2017-05-17T01:50:05.153Z,0
2017-05-17T01:50:45.763Z,0
2017-05-17T01:51:26.347Z,0
2017-05-17T01:52:06.940Z,0
2017-05-17T01:52:47.528Z,0
2017-05-17T01:53:28.133Z,0
2017-05-17T01:54:08.723Z,0
2017-05-17T01:54:49.318Z,0
2017-05-17T01:55:29.901Z,0
2017-05-17T01:56:10.487Z,0
2017-05-17T01:56:51.076Z,0
2017-05-17T01:57:31.664Z,0
2017-05-17T01:58:12.237Z,0
2017-05-17T01:58:52.864Z,0
2017-05-17T01:59:33.488Z,0
2017-05-17T02:00:14.092Z,0
2017-05-17T02:00:54.681Z,0
2017-05-17T02:01:35.271Z,0
2017-05-17T02:02:15.847Z,0
2017-05-17T02:02:56.428Z,0
2017-05-17T02:03:37.012Z,0
2017-05-17T02:04:17.639Z,0
2017-05-17T02:04:58.253Z,0
2017-05-17T02:05:38.883Z,0
2017-05-17T02:06:19.463Z,0
2017-05-17T02:07:00.065Z,0
2017-05-17T02:07:40.596Z,0
2017-05-17T02:08:21.189Z,0
2017-05-17T02:09:01.814Z,0
2017-05-17T02:09:42.392Z,0
2017-05-17T02:10:22.984Z,0
2017-05-17T02:11:03.573Z,0
2017-05-17T02:11:44.142Z,0
2017-05-17T02:12:24.716Z,0
2017-05-17T02:13:05.301Z,0
2017-05-17T02:13:45.894Z,0
2017-05-17T02:14:26.514Z,0
2017-05-17T02:15:07.131Z,0
2017-05-17T02:15:47.712Z,0
2017-05-17T02:16:28.307Z,0
2017-05-17T02:17:08.932Z,0
2017-05-17T02:17:49.542Z,0
2017-05-17T02:18:30.155Z,0
2017-05-17T02:19:10.709Z,0
2017-05-17T02:19:51.277Z,0
2017-05-17T02:20:31.860Z,0
2017-05-17T02:21:12.469Z,0
2017-05-17T02:21:53.066Z,0
2017-05-17T02:22:33.643Z,0
2017-05-17T02:23:14.248Z,0
2017-05-17T02:23:54.875Z,0
2017-05-17T02:24:35.480Z,0
2017-05-17T02:25:16.069Z,0
2017-05-17T02:25:56.686Z,0
2017-05-17T02:26:37.291Z,0
2017-05-17T02:27:17.924Z,0
2017-05-17T02:27:58.506Z,0
2017-05-17T02:28:39.077Z,0
2017-05-17T02:29:19.655Z,0
2017-05-17T02:30:00.231Z,0
2017-05-17T02:30:40.818Z,0
2017-05-17T02:31:21.408Z,0
2017-05-17T02:32:02.044Z,0
2017-05-17T02:32:42.595Z,0
2017-05-17T02:33:23.183Z,0
2017-05-17T02:34:03.771Z,0
2017-05-17T02:34:44.356Z,0
2017-05-17T02:35:25.000Z,0
2017-05-17T02:36:05.560Z,0
2017-05-17T02:36:46.132Z,4
2017-05-17T02:37:26.719Z,4
2017-05-17T02:38:07.349Z,4
2017-05-17T02:38:47.887Z,4
2017-05-17T02:39:28.481Z,0
2017-05-17T02:40:09.053Z,4
2017-05-17T02:40:49.640Z,4
2017-05-17T02:41:30.217Z,4
2017-05-17T02:42:10.862Z,4
2017-05-17T02:42:51.433Z,8
2017-05-17T02:43:32.033Z,4
2017-05-17T02:44:12.608Z,4
2017-05-17T02:44:53.202Z,8
2017-05-17T02:45:33.779Z,8
2017-05-17T02:46:14.347Z,8
2017-05-17T02:46:54.928Z,8
2017-05-17T02:47:35.529Z,8
2017-05-17T02:48:16.119Z,8
2017-05-17T02:48:56.691Z,12
2017-05-17T02:49:37.274Z,8
2017-05-17T02:50:17.856Z,12
2017-05-17T02:50:58.433Z,12
2017-05-17T02:51:39.001Z,12
2017-05-17T02:52:19.589Z,16
2017-05-17T02:53:00.175Z,16
2017-05-17T02:53:40.761Z,16
2017-05-17T02:54:21.357Z,16
2017-05-17T02:55:01.922Z,20
2017-05-17T02:55:42.521Z,20
2017-05-17T02:56:23.092Z,24
2017-05-17T02:57:03.669Z,24
2017-05-17T02:57:44.264Z,24
2017-05-17T02:58:24.849Z,28
2017-05-17T02:59:05.430Z,24
2017-05-17T02:59:46.046Z,28
2017-05-17T03:00:26.617Z,32
2017-05-17T03:01:07.233Z,32
2017-05-17T03:01:47.801Z,32
2017-05-17T03:02:28.386Z,32
2017-05-17T03:03:08.969Z,32
2017-05-17T03:03:49.578Z,32
2017-05-17T03:04:30.164Z,40
2017-05-17T03:05:10.766Z,40
2017-05-17T03:05:51.359Z,44
2017-05-17T03:06:31.967Z,44
2017-05-17T03:07:12.565Z,44
2017-05-17T03:07:53.167Z,48
2017-05-17T03:08:33.751Z,48
2017-05-17T03:09:14.376Z,52
2017-05-17T03:09:54.944Z,52
2017-05-17T03:10:35.544Z,60
2017-05-17T03:11:16.146Z,60
2017-05-17T03:11:56.723Z,64
2017-05-17T03:12:37.316Z,64
2017-05-17T03:13:17.913Z,68
2017-05-17T03:13:58.490Z,72
2017-05-17T03:14:39.083Z,80
2017-05-17T03:15:19.671Z,80
2017-05-17T03:16:00.238Z,84
2017-05-17T03:16:40.834Z,88
2017-05-17T03:17:21.415Z,96
2017-05-17T03:18:02.001Z,104
2017-05-17T03:18:42.597Z,108
2017-05-17T03:19:23.168Z,112
2017-05-17T03:20:03.746Z,124
2017-05-17T03:20:44.355Z,128
2017-05-17T03:21:24.947Z,136
2017-05-17T03:22:05.541Z,140
2017-05-17T03:22:46.127Z,152
2017-05-17T03:23:26.692Z,156
2017-05-17T03:24:07.282Z,160
2017-05-17T03:24:47.893Z,168
2017-05-17T03:25:28.507Z,176
2017-05-17T03:26:09.087Z,184
2017-05-17T03:26:49.671Z,196
2017-05-17T03:27:30.258Z,204
2017-05-17T03:28:10.852Z,220
2017-05-17T03:28:51.430Z,232
2017-05-17T03:29:32.007Z,248
2017-05-17T03:30:12.592Z,264
2017-05-17T03:30:53.177Z,280
2017-05-17T03:31:33.757Z,296
2017-05-17T03:32:14.361Z,312
2017-05-17T03:32:54.976Z,328
2017-05-17T03:33:35.558Z,344
2017-05-17T03:34:16.133Z,360
2017-05-17T03:34:56.723Z,384
2017-05-17T03:35:37.287Z,404
2017-05-17T03:36:17.866Z,428
2017-05-17T03:36:58.486Z,460
2017-05-17T03:37:39.075Z,496
2017-05-17T03:38:19.658Z,532
2017-05-17T03:39:00.230Z,572
2017-05-17T03:39:40.815Z,604
2017-05-17T03:40:21.394Z,640
2017-05-17T03:41:01.991Z,680
2017-05-17T03:41:42.617Z,712
2017-05-17T03:42:23.235Z,748
2017-05-17T03:43:03.838Z,780
2017-05-17T03:43:44.421Z,808
2017-05-17T03:44:24.997Z,828
2017-05-17T03:45:05.593Z,840
2017-05-17T03:45:46.182Z,852
2017-05-17T03:46:26.749Z,868
2017-05-17T03:47:07.327Z,888
2017-05-17T03:47:47.902Z,908
2017-05-17T03:48:28.495Z,920
2017-05-17T03:49:09.077Z,936
2017-05-17T03:49:49.659Z,948
2017-05-17T03:50:30.241Z,968
2017-05-17T03:51:10.818Z,996
2017-05-17T03:51:51.399Z,1032
2017-05-17T03:52:31.980Z,1080
2017-05-17T03:53:12.545Z,1116
2017-05-17T03:53:53.116Z,1156
2017-05-17T03:54:33.709Z,1188
2017-05-17T03:55:14.307Z,1228
2017-05-17T03:55:54.892Z,1272
2017-05-17T03:56:35.471Z,1320
2017-05-17T03:57:16.055Z,1368
2017-05-17T03:57:56.634Z,1408
2017-05-17T03:58:37.217Z,1448
2017-05-17T03:59:17.798Z,1484
2017-05-17T03:59:58.385Z,1516
2017-05-17T04:00:38.970Z,1548
2017-05-17T04:01:19.565Z,1576
2017-05-17T04:02:00.144Z,1600
2017-05-17T04:02:40.717Z,1620
2017-05-17T04:03:21.314Z,1640
2017-05-17T04:04:01.901Z,1660
2017-05-17T04:04:42.482Z,1676
2017-05-17T04:05:23.071Z,1696
2017-05-17T04:06:03.665Z,1700
2017-05-17T04:06:44.268Z,1692
2017-05-17T04:07:24.856Z,1732
2017-05-17T04:08:05.449Z,1772
2017-05-17T04:08:46.033Z,1816
2017-05-17T04:09:26.611Z,1868
2017-05-17T04:10:07.222Z,1904
2017-05-17T04:10:47.807Z,1944
2017-05-17T04:11:28.406Z,1996
2017-05-17T04:12:08.984Z,2068
2017-05-17T04:12:49.599Z,2144
2017-05-17T04:13:30.200Z,2216
2017-05-17T04:14:10.796Z,2288
2017-05-17T04:14:51.384Z,2364
2017-05-17T04:15:31.986Z,2448
2017-05-17T04:16:12.568Z,2504
2017-05-17T04:16:53.154Z,2536
2017-05-17T04:17:33.785Z,2564
2017-05-17T04:18:14.363Z,2588
2017-05-17T04:18:54.976Z,2624
2017-05-17T04:19:35.621Z,2668
2017-05-17T04:20:16.204Z,2720
2017-05-17T04:20:56.805Z,2772
2017-05-17T04:21:37.380Z,2832
2017-05-17T04:22:18.002Z,2904
2017-05-17T04:22:58.552Z,2964
2017-05-17T04:23:39.145Z,3020
2017-05-17T04:24:19.738Z,3064
2017-05-17T04:25:00.329Z,3096
2017-05-17T04:25:40.900Z,3132
2017-05-17T04:26:21.467Z,3164
2017-05-17T04:27:02.047Z,3204
2017-05-17T04:27:42.614Z,3232
2017-05-17T04:28:23.209Z,3272
2017-05-17T04:29:03.869Z,3308
2017-05-17T04:29:44.482Z,3364
2017-05-17T04:30:25.065Z,3408
2017-05-17T04:31:05.677Z,3456
2017-05-17T04:31:46.254Z,3512
2017-05-17T04:32:26.844Z,3580
2017-05-17T04:33:07.440Z,3636
2017-05-17T04:33:48.029Z,3700
2017-05-17T04:34:28.606Z,3760
2017-05-17T04:35:09.197Z,3816
2017-05-17T04:35:49.793Z,3880
2017-05-17T04:36:30.388Z,3932
2017-05-17T04:37:10.985Z,3984
2017-05-17T04:37:51.570Z,4040
2017-05-17T04:38:32.149Z,4096
2017-05-17T04:39:12.744Z,4144
2017-05-17T04:39:53.329Z,4172
2017-05-17T04:40:33.906Z,4188
2017-05-17T04:41:14.517Z,4176
2017-05-17T04:41:55.109Z,4132
2017-05-17T04:42:35.709Z,4088
2017-05-17T04:43:16.300Z,4040
2017-05-17T04:43:56.941Z,4020
2017-05-17T04:44:37.512Z,4016
2017-05-17T04:45:18.196Z,4064
2017-05-17T04:45:58.804Z,4136
2017-05-17T04:46:39.380Z,4184
2017-05-17T04:47:20.046Z,4224
2017-05-17T04:48:00.636Z,4240
2017-05-17T04:48:41.226Z,4268
2017-05-17T04:49:21.801Z,4288
2017-05-17T04:50:02.399Z,4300
2017-05-17T04:50:42.972Z,4328
2017-05-17T04:51:23.552Z,4372
2017-05-17T04:52:04.170Z,4420
2017-05-17T04:52:44.846Z,4484
2017-05-17T04:53:25.458Z,4528
2017-05-17T04:54:06.036Z,4544
2017-05-17T04:54:46.640Z,4572
2017-05-17T04:55:27.240Z,4572
2017-05-17T04:56:07.844Z,4604
2017-05-17T04:56:48.439Z,4656
2017-05-17T04:57:29.028Z,4648
2017-05-17T04:58:09.622Z,4744
2017-05-17T04:58:50.197Z,4864
2017-05-17T04:59:30.789Z,4972
2017-05-17T05:00:11.387Z,5044
2017-05-17T05:00:51.995Z,5136
2017-05-17T05:01:32.584Z,5296
2017-05-17T05:02:13.179Z,5408
2017-05-17T05:02:53.772Z,5532
2017-05-17T05:03:34.347Z,5536
2017-05-17T05:04:14.953Z,5508
2017-05-17T05:04:55.545Z,5544
2017-05-17T05:05:36.154Z,5568
2017-05-17T05:06:16.725Z,5556
2017-05-17T05:06:57.322Z,5616
2017-05-17T05:07:37.930Z,5712
2017-05-17T05:08:18.537Z,5792
2017-05-17T05:08:59.112Z,5860
2017-05-17T05:09:39.703Z,5988
2017-05-17T05:10:20.311Z,6036
2017-05-17T05:11:00.912Z,6096
2017-05-17T05:11:41.490Z,6128
2017-05-17T05:12:22.088Z,6060
2017-05-17T05:13:02.719Z,6028
2017-05-17T05:13:43.293Z,5976
2017-05-17T05:14:23.879Z,6064
2017-05-17T05:15:04.489Z,6036
2017-05-17T05:15:45.080Z,5976
2017-05-17T05:16:25.682Z,5932
2017-05-17T05:17:06.334Z,5936
2017-05-17T05:17:46.946Z,5888
2017-05-17T05:18:27.610Z,5888
2017-05-17T05:19:08.177Z,5948
2017-05-17T05:19:48.779Z,5928
2017-05-17T05:20:29.369Z,5776
2017-05-17T05:21:10.107Z,5548
2017-05-17T05:21:50.744Z,5488
2017-05-17T05:22:31.315Z,5588
2017-05-17T05:23:11.923Z,5596
2017-05-17T05:23:52.527Z,5636
2017-05-17T05:24:33.160Z,5968
2017-05-17T05:25:13.753Z,6076
2017-05-17T05:25:54.354Z,6464
2017-05-17T05:26:34.926Z,6932
2017-05-17T05:27:15.519Z,6924
2017-05-17T05:27:56.116Z,7476
2017-05-17T05:28:36.825Z,8300
2017-05-17T05:29:17.407Z,8916
2017-05-17T05:29:57.977Z,8816
2017-05-17T05:30:38.565Z,9020
2017-05-17T05:31:19.157Z,9320
2017-05-17T05:31:59.752Z,10456
2017-05-17T05:32:40.338Z,14920
2017-05-17T05:33:20.924Z,32800
2017-05-17T05:34:01.501Z,56736
2017-05-17T05:34:42.074Z,68480
2017-05-17T05:35:22.681Z,36320
2017-05-17T05:36:03.266Z,20512
2017-05-17T05:36:43.849Z,20864
2017-05-17T05:37:24.425Z,49696
2017-05-17T05:38:05.037Z,75200
2017-05-17T05:38:45.609Z,81696
2017-05-17T05:39:26.190Z,83648
2017-05-17T05:40:06.775Z,84736
2017-05-17T05:40:47.354Z,86112
2017-05-17T05:41:27.939Z,84800
2017-05-17T05:42:08.574Z,83392
2017-05-17T05:42:49.218Z,74176
2017-05-17T05:43:29.830Z,83232
2017-05-17T05:44:10.411Z,89184
2017-05-17T05:44:50.986Z,88576
2017-05-17T05:45:31.576Z,89856
2017-05-17T05:46:12.170Z,91008
2017-05-17T05:46:52.764Z,92160
2017-05-17T05:47:33.333Z,91328
2017-05-17T05:48:13.958Z,89280
2017-05-17T05:48:54.548Z,87968
2017-05-17T05:49:35.149Z,88768
2017-05-17T05:50:15.763Z,89376
2017-05-17T05:50:56.373Z,88704
2017-05-17T05:51:36.959Z,89856
2017-05-17T05:52:17.548Z,90624
2017-05-17T05:52:58.112Z,92992
2017-05-17T05:53:38.713Z,91744
2017-05-17T05:54:19.308Z,89184
2017-05-17T05:54:59.916Z,87264
2017-05-17T05:55:40.504Z,86048
2017-05-17T05:56:21.102Z,85408
2017-05-17T05:57:01.696Z,86816
2017-05-17T05:57:42.289Z,87520
2017-05-17T05:58:22.874Z,89152
2017-05-17T05:59:03.489Z,92192
2017-05-17T05:59:44.073Z,93280
2017-05-17T06:00:24.703Z,91904
2017-05-17T06:01:05.270Z,89088
2017-05-17T06:01:45.880Z,87776
2017-05-17T06:02:26.486Z,87584
2017-05-17T06:03:07.077Z,85472
2017-05-17T06:03:47.695Z,85952
2017-05-17T06:04:28.280Z,88672
2017-05-17T06:05:08.870Z,91264
2017-05-17T06:05:49.473Z,92992
2017-05-17T06:06:30.118Z,82528
2017-05-17T06:07:10.721Z,79744
2017-05-17T06:07:51.344Z,78016
2017-05-17T06:08:31.941Z,76992
2017-05-17T06:09:12.522Z,80448
2017-05-17T06:09:53.113Z,82784
2017-05-17T06:10:33.702Z,85984
2017-05-17T06:11:14.335Z,86880
2017-05-17T06:11:54.963Z,83520
2017-05-17T06:12:35.608Z,83840
2017-05-17T06:13:16.550Z,83712
2017-05-17T06:13:57.146Z,82848
2017-05-17T06:14:37.749Z,81600
2017-05-17T06:15:18.353Z,84064
2017-05-17T06:15:58.931Z,81312
2017-05-17T06:16:39.522Z,81888
2017-05-17T06:17:20.113Z,82048
2017-05-17T06:18:00.729Z,80032
2017-05-17T06:18:41.712Z,78144
2017-05-17T06:19:22.588Z,77664
2017-05-17T06:20:03.588Z,82048
2017-05-17T06:20:44.354Z,81760
2017-05-17T06:21:24.945Z,80160
2017-05-17T06:22:05.542Z,77248
2017-05-17T06:22:46.560Z,80128
2017-05-17T06:23:27.162Z,80864
2017-05-17T06:24:07.744Z,81184
2017-05-17T06:24:48.345Z,77920
2017-05-17T06:25:28.934Z,74560
2017-05-17T06:26:10.029Z,74496
2017-05-17T06:26:50.894Z,72864
2017-05-17T06:27:32.083Z,74528
2017-05-17T06:28:12.896Z,73248
2017-05-17T06:28:53.497Z,77312
2017-05-17T06:29:34.096Z,79680
2017-05-17T06:30:14.871Z,83072
2017-05-17T06:30:55.461Z,84224
2017-05-17T06:31:36.052Z,84736
2017-05-17T06:32:16.658Z,85152
2017-05-17T06:32:57.236Z,85088
2017-05-17T06:33:37.851Z,84800
2017-05-17T06:34:18.488Z,85728
2017-05-17T06:34:59.130Z,85312
2017-05-17T06:35:39.733Z,85632
2017-05-17T06:36:20.320Z,88000
2017-05-17T06:37:00.906Z,88640
2017-05-17T06:37:41.497Z,87680
2017-05-17T06:38:22.087Z,86848
2017-05-17T06:39:02.705Z,85952
2017-05-17T06:39:43.298Z,86816
2017-05-17T06:40:23.891Z,86304
2017-05-17T06:41:04.481Z,86560
2017-05-17T06:41:45.065Z,86336
2017-05-17T06:42:25.662Z,84960
2017-05-17T06:43:06.269Z,88000
2017-05-17T06:43:46.897Z,88576
2017-05-17T06:44:27.501Z,87616
2017-05-17T06:45:08.088Z,85824
2017-05-17T06:45:48.675Z,85696
2017-05-17T06:46:29.287Z,85120
2017-05-17T06:47:09.893Z,84512
2017-05-17T06:47:50.489Z,83840
2017-05-17T06:48:31.077Z,84480
2017-05-17T06:49:11.683Z,82432
2017-05-17T06:49:52.271Z,82208
2017-05-17T06:50:32.863Z,83616
2017-05-17T06:51:13.472Z,82016
2017-05-17T06:51:54.072Z,82432
2017-05-17T06:52:34.654Z,82432
2017-05-17T06:53:15.234Z,83776
2017-05-17T06:53:55.830Z,85600
2017-05-17T06:54:36.408Z,85952
2017-05-17T06:55:16.988Z,83872
2017-05-17T06:55:57.571Z,78112
2017-05-17T06:56:38.181Z,71680
2017-05-17T06:57:18.773Z,71584
2017-05-17T06:57:59.385Z,74336
2017-05-17T06:58:40.010Z,75808
2017-05-17T06:59:24.805Z,77088
2017-05-17T07:00:24.671Z,81536
2017-05-17T07:01:05.338Z,81952
2017-05-17T07:01:45.915Z,82176
2017-05-17T07:02:26.514Z,83552
2017-05-17T07:03:07.116Z,83232
2017-05-17T07:03:47.721Z,78720
2017-05-17T07:04:28.332Z,84352
2017-05-17T07:05:08.968Z,85632
2017-05-17T07:05:49.563Z,82176
2017-05-17T07:06:30.165Z,81952
2017-05-17T07:07:10.767Z,83296
2017-05-17T07:07:51.360Z,82912
2017-05-17T07:08:31.943Z,81152
2017-05-17T07:09:12.561Z,81216
2017-05-17T07:09:53.167Z,82176
2017-05-17T07:10:33.780Z,86880
2017-05-17T07:11:14.346Z,85408
2017-05-17T07:11:54.951Z,86400
2017-05-17T07:12:35.572Z,87648
2017-05-17T07:13:16.174Z,86560
2017-05-17T07:13:56.742Z,85024
2017-05-17T07:14:37.968Z,84000
2017-05-17T07:15:18.557Z,83264
2017-05-17T07:15:59.169Z,84544
2017-05-17T07:16:39.762Z,83296
2017-05-17T07:17:20.383Z,86560
2017-05-17T07:18:01.055Z,87264
2017-05-17T07:18:41.666Z,84864
2017-05-17T07:19:22.307Z,86336
2017-05-17T07:20:02.921Z,86592
2017-05-17T07:20:43.523Z,86560
2017-05-17T07:21:24.156Z,86144
2017-05-17T07:22:04.770Z,87040
2017-05-17T07:22:45.377Z,88640
2017-05-17T07:23:25.980Z,89344
2017-05-17T07:24:06.581Z,88064
2017-05-17T07:24:47.215Z,86016
2017-05-17T07:25:27.786Z,82240
2017-05-17T07:26:08.374Z,72608
2017-05-17T07:26:48.945Z,73984
2017-05-17T07:27:29.545Z,86976
2017-05-17T07:28:10.160Z,92992
2017-05-17T07:28:50.767Z,93984
2017-05-17T07:29:31.345Z,96224
2017-05-17T07:30:11.945Z,96384
2017-05-17T07:30:52.545Z,95712
2017-05-17T07:31:33.150Z,94656
2017-05-17T07:32:13.752Z,93024
2017-05-17T07:32:54.357Z,91296
2017-05-17T07:33:34.960Z,92192
2017-05-17T07:34:15.550Z,96160
2017-05-17T07:34:56.146Z,96928
2017-05-17T07:35:36.757Z,96096
2017-05-17T07:36:17.370Z,96352
2017-05-17T07:36:57.998Z,96416
2017-05-17T07:37:38.572Z,96096
2017-05-17T07:38:19.168Z,94944
2017-05-17T07:39:00.018Z,93600
2017-05-17T07:39:40.741Z,90208
2017-05-17T07:40:21.383Z,90816
2017-05-17T07:41:02.004Z,91040
2017-05-17T07:41:42.641Z,91968
2017-05-17T07:42:23.266Z,87872
2017-05-17T07:43:03.856Z,85408
2017-05-17T07:43:44.488Z,84192
2017-05-17T07:44:25.100Z,83488
2017-05-17T07:45:05.782Z,83040
2017-05-17T07:45:46.390Z,82784
2017-05-17T07:46:27.169Z,81504
2017-05-17T07:47:07.796Z,76544
2017-05-17T07:47:48.450Z,77600
2017-05-17T07:48:29.128Z,81472
2017-05-17T07:49:09.854Z,84864
2017-05-17T07:49:50.507Z,85632
2017-05-17T07:50:31.148Z,84928
2017-05-17T07:51:11.840Z,83840
2017-05-17T07:51:52.493Z,83968
2017-05-17T07:52:33.209Z,83840
2017-05-17T07:53:13.817Z,84064
2017-05-17T07:53:54.456Z,83136
2017-05-17T07:54:35.054Z,82816
2017-05-17T07:55:15.664Z,84416
2017-05-17T07:55:56.459Z,87616
2017-05-17T07:56:37.097Z,88480
2017-05-17T07:57:17.734Z,86336
2017-05-17T07:57:58.361Z,69568
2017-05-17T07:58:38.979Z,42464
2017-05-17T07:59:19.588Z,23840
2017-05-17T08:00:00.275Z,19680
2017-05-17T08:00:40.871Z,18592
2017-05-17T08:01:21.506Z,18112
2017-05-17T08:02:02.130Z,17600
2017-05-17T08:02:42.756Z,17248
2017-05-17T08:03:23.416Z,16800
2017-05-17T08:04:04.005Z,16640
2017-05-17T08:04:44.630Z,16512
2017-05-17T08:05:25.401Z,16160
2017-05-17T08:06:06.078Z,15968
2017-05-17T08:06:46.776Z,15488
2017-05-17T08:07:27.403Z,15096
2017-05-17T08:08:08.013Z,14944
2017-05-17T08:08:48.642Z,14764
2017-05-17T08:09:29.283Z,14612
2017-05-17T08:10:09.912Z,14136
2017-05-17T08:10:50.562Z,14268
2017-05-17T08:11:31.168Z,14012
2017-05-17T08:12:11.772Z,13268
2017-05-17T08:12:52.399Z,13012
2017-05-17T08:13:33.001Z,13128
2017-05-17T08:14:13.683Z,12700
2017-05-17T08:14:54.303Z,11688
2017-05-17T08:15:34.930Z,10536
2017-05-17T08:16:15.547Z,10064
2017-05-17T08:16:56.191Z,10148
2017-05-17T08:17:36.864Z,10508
2017-05-17T08:18:17.554Z,11148
2017-05-17T08:18:58.140Z,11464
2017-05-17T08:19:38.732Z,11680
2017-05-17T08:20:19.337Z,11892
2017-05-17T08:21:00.009Z,12028
2017-05-17T08:21:40.675Z,11892
2017-05-17T08:22:21.307Z,11636
2017-05-17T08:23:01.925Z,11248
2017-05-17T08:23:42.562Z,10712
2017-05-17T08:24:23.166Z,10300
2017-05-17T08:25:03.839Z,9744
2017-05-17T08:25:44.497Z,9596
2017-05-17T08:26:25.089Z,9388
2017-05-17T08:27:05.702Z,9176
2017-05-17T08:27:46.428Z,9016
2017-05-17T08:28:27.054Z,8860
2017-05-17T08:29:07.669Z,8804
2017-05-17T08:29:48.512Z,9108
2017-05-17T08:30:29.157Z,9260
2017-05-17T08:31:09.788Z,9244
2017-05-17T08:31:50.376Z,9116
2017-05-17T08:32:31.010Z,8984
2017-05-17T08:33:11.672Z,8744
2017-05-17T08:33:52.306Z,8584
2017-05-17T08:34:33.033Z,8472
2017-05-17T08:35:13.710Z,8396
2017-05-17T08:35:54.365Z,8304
2017-05-17T08:36:35.024Z,8188
2017-05-17T08:37:15.672Z,8128
2017-05-17T08:37:56.412Z,8040
2017-05-17T08:38:36.976Z,7952
2017-05-17T08:39:17.731Z,7856
2017-05-17T08:39:58.302Z,7764
2017-05-17T08:40:38.949Z,7656
2017-05-17T08:41:19.549Z,7548
2017-05-17T08:42:00.159Z,7444
2017-05-17T08:42:40.746Z,7328
2017-05-17T08:43:21.501Z,7220
2017-05-17T08:44:02.255Z,7120
2017-05-17T08:44:42.870Z,6980
2017-05-17T08:45:23.486Z,6932
2017-05-17T08:46:04.131Z,6868
2017-05-17T08:46:44.724Z,6792
2017-05-17T08:47:25.475Z,6684
2017-05-17T08:48:06.112Z,6588
2017-05-17T08:48:46.736Z,6572
2017-05-17T08:49:27.338Z,6488
2017-05-17T08:50:07.945Z,6444
2017-05-17T08:50:48.672Z,6376
2017-05-17T08:51:29.426Z,6336
2017-05-17T08:52:10.272Z,6268
2017-05-17T08:52:50.837Z,6192
2017-05-17T08:53:31.442Z,6120
2017-05-17T08:54:12.080Z,6076
2017-05-17T08:54:53.380Z,6028
2017-05-17T08:55:33.964Z,5996
2017-05-17T08:56:14.570Z,5944
2017-05-17T08:56:55.256Z,5916
2017-05-17T08:57:35.877Z,5840
2017-05-17T08:58:16.495Z,5752
2017-05-17T08:58:57.238Z,5684
2017-05-17T08:59:37.872Z,5640
2017-05-17T09:00:18.492Z,5588
2017-05-17T09:00:59.296Z,5524
2017-05-17T09:01:40.413Z,5404
2017-05-17T09:02:21.009Z,5296
2017-05-17T09:03:01.697Z,5320
2017-05-17T09:03:42.566Z,5404
2017-05-17T09:04:23.174Z,5412
2017-05-17T09:05:03.839Z,5388
2017-05-17T09:05:44.576Z,5396
2017-05-17T09:06:25.173Z,5372
2017-05-17T09:07:05.795Z,5356
2017-05-17T09:07:46.423Z,5352
2017-05-17T09:08:27.111Z,5320
2017-05-17T09:09:07.721Z,5292
2017-05-17T09:09:48.326Z,5272
2017-05-17T09:10:29.080Z,5244
2017-05-17T09:11:09.669Z,5236
2017-05-17T09:11:50.428Z,5220
2017-05-17T09:12:31.741Z,5204
2017-05-17T09:13:12.323Z,5176
2017-05-17T09:13:52.934Z,5140
2017-05-17T09:14:33.552Z,5116
2017-05-17T09:15:14.150Z,5076